createdAt,value
2018-09-10T00:00:48.261Z,16.60
2018-09-10T00:03:16.384Z,16.60
2018-09-10T00:05:44.499Z,16.60
2018-09-10T00:08:12.620Z,16.60
2018-09-10T00:10:40.728Z,16.50
2018-09-10T00:13:08.829Z,16.50
2018-09-10T00:15:36.959Z,16.50
2018-09-10T00:18:05.057Z,16.50
2018-09-10T00:20:33.187Z,16.50
2018-09-10T00:23:01.309Z,16.50
2018-09-10T00:25:29.429Z,16.50
2018-09-10T00:27:57.543Z,16.40
2018-09-10T00:30:25.672Z,16.50
2018-09-10T00:32:53.784Z,16.50
2018-09-10T00:35:21.893Z,16.40
2018-09-10T00:37:50.019Z,16.50
2018-09-10T00:40:18.139Z,16.40
2018-09-10T00:42:46.249Z,16.40
2018-09-10T00:45:14.375Z,16.30
2018-09-10T00:47:42.498Z,16.40
2018-09-10T00:50:10.603Z,16.40
2018-09-10T00:52:38.739Z,16.40
2018-09-10T00:55:06.856Z,16.30
2018-09-10T00:57:34.992Z,16.40
2018-09-10T01:00:03.115Z,16.40
2018-09-10T01:02:31.236Z,16.40
2018-09-10T01:04:59.349Z,16.50
2018-09-10T01:07:27.454Z,16.60
2018-09-10T01:09:55.579Z,16.70
2018-09-10T01:12:23.686Z,16.70
2018-09-10T01:14:51.797Z,16.80
2018-09-10T01:17:19.907Z,16.80
2018-09-10T01:19:48.013Z,16.80
2018-09-10T01:22:16.127Z,16.90
2018-09-10T01:24:44.262Z,16.90
2018-09-10T01:27:12.391Z,17.00
2018-09-10T01:29:40.514Z,16.90
2018-09-10T01:32:08.631Z,17.00
2018-09-10T01:34:42.141Z,17.00
2018-09-10T01:37:10.260Z,17.00
2018-09-10T01:39:38.396Z,17.00
2018-09-10T01:42:06.645Z,17.10
2018-09-10T01:44:34.811Z,17.10
2018-09-10T01:47:02.936Z,17.10
2018-09-10T01:49:31.385Z,17.10
2018-09-10T01:51:59.486Z,17.10
2018-09-10T01:54:27.612Z,17.10
2018-09-10T01:56:55.723Z,17.10
2018-09-10T01:59:23.823Z,17.10
2018-09-10T02:01:51.927Z,17.10
2018-09-10T02:04:20.011Z,17.10
2018-09-10T02:06:48.626Z,17.10
2018-09-10T02:09:16.712Z,17.10
2018-09-10T02:11:44.799Z,17.10
2018-09-10T02:14:12.885Z,17.10
2018-09-10T02:16:41.008Z,17.10
2018-09-10T02:19:09.091Z,17.10
2018-09-10T02:21:37.183Z,17.00
2018-09-10T02:24:05.272Z,17.00
2018-09-10T02:26:33.364Z,17.00
2018-09-10T02:29:01.467Z,16.90
2018-09-10T02:31:29.559Z,16.90
2018-09-10T02:33:57.648Z,16.80
2018-09-10T02:36:25.764Z,16.80
2018-09-10T02:38:53.840Z,16.70
2018-09-10T02:41:21.939Z,16.60
2018-09-10T02:43:50.088Z,16.60
2018-09-10T02:46:24.947Z,16.50
2018-09-10T02:48:53.036Z,16.50
2018-09-10T02:51:21.123Z,16.40
2018-09-10T02:53:49.207Z,16.30
2018-09-10T02:56:17.297Z,16.30
2018-09-10T02:58:45.387Z,16.20
2018-09-10T03:01:13.496Z,16.20
2018-09-10T03:03:41.770Z,16.10
2018-09-10T03:06:09.865Z,16.10
2018-09-10T03:08:37.939Z,16.10
2018-09-10T03:11:06.037Z,15.90
2018-09-10T03:13:34.129Z,15.90
2018-09-10T03:16:02.226Z,15.90
2018-09-10T03:18:30.297Z,15.80
2018-09-10T03:20:58.398Z,15.70
2018-09-10T03:23:26.488Z,15.70
2018-09-10T03:25:54.576Z,15.60
2018-09-10T03:28:22.659Z,15.60
2018-09-10T03:30:50.774Z,15.60
2018-09-10T03:33:18.851Z,15.50
2018-09-10T03:35:46.952Z,15.60
2018-09-10T03:38:15.060Z,15.50
2018-09-10T03:40:43.208Z,15.50
2018-09-10T03:43:11.301Z,15.50
2018-09-10T03:45:39.374Z,15.40
2018-09-10T03:48:07.864Z,15.40
2018-09-10T03:50:35.944Z,15.40
2018-09-10T03:53:04.028Z,15.30
2018-09-10T03:55:32.116Z,15.30
2018-09-10T03:58:00.209Z,15.20
2018-09-10T04:00:28.480Z,15.20
2018-09-10T04:02:56.585Z,15.20
2018-09-10T04:05:24.664Z,15.20
2018-09-10T04:07:52.753Z,15.20
2018-09-10T04:10:20.840Z,15.30
2018-09-10T04:12:48.931Z,15.30
2018-09-10T04:15:17.011Z,15.20
2018-09-10T04:17:45.108Z,15.20
2018-09-10T04:20:13.204Z,15.10
2018-09-10T04:22:42.259Z,15.10
2018-09-10T04:25:10.337Z,15.10
2018-09-10T04:27:38.740Z,15.00
2018-09-10T04:30:12.968Z,15.10
2018-09-10T04:32:41.099Z,15.10
2018-09-10T04:35:09.754Z,15.10
2018-09-10T04:37:38.258Z,15.20
2018-09-10T04:40:06.432Z,15.20
2018-09-10T04:42:34.802Z,15.20
2018-09-10T04:45:04.021Z,15.20
2018-09-10T04:47:32.606Z,15.20
2018-09-10T04:50:01.693Z,15.20
2018-09-10T04:52:29.870Z,15.30
2018-09-10T04:54:57.955Z,15.30
2018-09-10T04:57:26.050Z,15.30
2018-09-10T04:59:54.463Z,15.40
2018-09-10T05:02:23.332Z,15.40
2018-09-10T05:04:52.071Z,15.40
2018-09-10T05:07:21.661Z,15.40
2018-09-10T05:09:50.606Z,15.40
2018-09-10T05:12:18.707Z,15.40
2018-09-10T05:14:46.785Z,15.40
2018-09-10T05:17:14.893Z,15.50
2018-09-10T05:19:42.980Z,15.40
2018-09-10T05:22:12.000Z,15.50
2018-09-10T05:24:40.104Z,15.40
2018-09-10T05:27:08.200Z,15.40
2018-09-10T05:29:36.304Z,15.40
2018-09-10T05:32:04.405Z,15.40
2018-09-10T05:34:32.501Z,15.40
2018-09-10T05:37:00.644Z,15.50
2018-09-10T05:39:28.715Z,15.50
2018-09-10T05:41:56.827Z,15.40
2018-09-10T05:44:24.923Z,15.40
2018-09-10T05:46:53.027Z,15.50
2018-09-10T05:49:21.105Z,15.50
2018-09-10T05:51:49.201Z,15.60
2018-09-10T05:54:17.302Z,15.60
2018-09-10T05:56:45.427Z,15.60
2018-09-10T05:59:13.604Z,15.70
2018-09-10T06:01:41.785Z,15.70
2018-09-10T06:04:16.497Z,15.70
2018-09-10T06:06:44.615Z,15.60
2018-09-10T06:09:12.744Z,15.60
2018-09-10T06:11:40.857Z,15.60
2018-09-10T06:14:08.986Z,15.70
2018-09-10T06:16:37.160Z,15.70
2018-09-10T06:19:05.267Z,15.80
2018-09-10T06:21:33.375Z,15.80
2018-09-10T06:24:05.203Z,15.80
2018-09-10T06:26:33.319Z,15.90
2018-09-10T06:29:01.447Z,15.90
2018-09-10T06:31:29.569Z,16.00
2018-09-10T06:33:57.723Z,16.00
2018-09-10T06:36:26.374Z,16.10
2018-09-10T06:38:54.531Z,16.10
2018-09-10T06:41:22.759Z,16.20
2018-09-10T06:43:51.062Z,16.20
2018-09-10T06:46:19.196Z,16.30
2018-09-10T06:48:47.311Z,16.40
2018-09-10T06:51:15.419Z,16.50
2018-09-10T06:53:43.557Z,16.60
2018-09-10T06:56:11.668Z,16.70
2018-09-10T06:58:39.795Z,16.80
2018-09-10T07:01:07.912Z,16.80
2018-09-10T07:03:36.044Z,16.90
2018-09-10T07:06:04.159Z,16.80
2018-09-10T07:08:32.280Z,16.90
2018-09-10T07:11:00.403Z,17.00
2018-09-10T07:13:28.516Z,17.00
2018-09-10T07:15:56.635Z,17.00
2018-09-10T07:18:24.808Z,17.00
2018-09-10T07:20:53.146Z,17.00
2018-09-10T07:23:21.785Z,17.10
2018-09-10T07:25:49.893Z,17.10
2018-09-10T07:28:18.011Z,17.30
2018-09-10T07:30:46.128Z,17.30
2018-09-10T07:33:14.246Z,17.30
2018-09-10T07:35:43.088Z,17.40
2018-09-10T07:38:11.269Z,17.40
2018-09-10T07:40:39.396Z,17.30
2018-09-10T07:43:07.514Z,17.40
2018-09-10T07:45:35.604Z,17.70
2018-09-10T07:48:03.740Z,17.80
2018-09-10T07:50:31.866Z,18.00
2018-09-10T07:52:59.949Z,18.00
2018-09-10T07:55:28.042Z,18.00
2018-09-10T07:57:56.156Z,18.20
2018-09-10T08:00:24.257Z,18.20
2018-09-10T08:02:52.397Z,18.40
2018-09-10T08:05:20.498Z,18.60
2018-09-10T08:07:48.584Z,18.60
2018-09-10T08:10:16.696Z,18.80
2018-09-10T08:12:44.832Z,19.00
2018-09-10T08:15:12.914Z,19.20
2018-09-10T08:17:41.008Z,19.40
2018-09-10T08:20:09.277Z,19.30
2018-09-10T08:22:37.411Z,19.30
2018-09-10T08:25:05.534Z,19.50
2018-09-10T08:27:33.777Z,19.40
2018-09-10T08:30:01.971Z,19.40
2018-09-10T08:32:30.053Z,19.30
2018-09-10T08:34:58.154Z,19.30
2018-09-10T08:37:26.247Z,19.30
2018-09-10T08:39:54.351Z,19.20
2018-09-10T08:42:22.445Z,19.30
2018-09-10T08:44:50.539Z,19.40
2018-09-10T08:47:18.646Z,19.60
2018-09-10T08:49:46.745Z,19.80
2018-09-10T08:52:14.843Z,20.00
2018-09-10T08:54:43.168Z,20.00
2018-09-10T08:57:11.022Z,20.10
2018-09-10T08:59:39.136Z,20.00
2018-09-10T09:02:07.509Z,20.10
2018-09-10T09:04:35.760Z,20.00
2018-09-10T09:07:03.865Z,20.20
2018-09-10T09:09:31.998Z,20.30
2018-09-10T09:12:00.119Z,20.20
2018-09-10T09:14:28.259Z,20.20
2018-09-10T09:16:56.366Z,20.40
2018-09-10T09:19:24.482Z,20.60
2018-09-10T09:21:52.602Z,20.80
2018-09-10T09:24:20.755Z,21.00
2018-09-10T09:26:48.861Z,20.90
2018-09-10T09:29:16.981Z,21.00
2018-09-10T09:31:45.104Z,21.10
2018-09-10T09:34:13.211Z,21.20
2018-09-10T09:37:49.407Z,21.20
2018-09-10T09:40:23.011Z,21.20
2018-09-10T09:42:56.598Z,21.20
2018-09-10T09:45:30.260Z,21.30
2018-09-10T09:47:58.513Z,21.30
2018-09-10T09:50:26.630Z,21.50
2018-09-10T09:52:54.746Z,21.70
2018-09-10T09:55:22.866Z,21.80
2018-09-10T09:57:50.985Z,22.00
2018-09-10T10:00:24.595Z,21.90
2018-09-10T10:02:56.725Z,22.10
2018-09-10T10:05:25.054Z,22.30
2018-09-10T10:07:53.202Z,22.40
2018-09-10T10:10:21.520Z,22.50
2018-09-10T10:12:49.521Z,22.90
2018-09-10T10:15:17.648Z,23.00
2018-09-10T10:17:45.904Z,23.00
2018-09-10T10:20:14.024Z,22.70
2018-09-10T10:22:42.140Z,22.50
2018-09-10T10:25:10.254Z,22.70
2018-09-10T10:27:38.369Z,22.70
2018-09-10T10:30:06.499Z,22.60
2018-09-10T10:32:35.127Z,22.70
2018-09-10T10:35:03.246Z,22.80
2018-09-10T10:37:31.355Z,22.80
2018-09-10T10:39:59.523Z,22.80
2018-09-10T10:42:27.643Z,22.90
2018-09-10T10:44:55.824Z,23.00
2018-09-10T10:47:23.971Z,23.10
2018-09-10T10:49:52.048Z,23.20
2018-09-10T10:52:20.166Z,23.20
2018-09-10T10:54:48.289Z,23.60
2018-09-10T10:57:16.450Z,23.70
2018-09-10T10:59:44.576Z,23.40
2018-09-10T11:02:12.661Z,23.40
2018-09-10T11:04:40.754Z,23.40
2018-09-10T11:07:08.843Z,23.60
2018-09-10T11:09:36.976Z,23.70
2018-09-10T11:12:05.088Z,23.60
2018-09-10T11:14:33.174Z,23.50
2018-09-10T11:17:01.388Z,23.60
2018-09-10T11:19:29.472Z,23.60
2018-09-10T11:21:57.591Z,23.40
2018-09-10T11:24:25.681Z,23.40
2018-09-10T11:26:53.761Z,23.40
2018-09-10T11:29:21.852Z,23.40
2018-09-10T11:31:50.158Z,23.40
2018-09-10T11:34:18.288Z,23.20
2018-09-10T11:36:46.415Z,23.10
2018-09-10T11:39:14.730Z,23.20
2018-09-10T11:41:42.813Z,23.20
2018-09-10T11:44:10.908Z,23.10
2018-09-10T11:46:39.110Z,23.20
2018-09-10T11:49:07.105Z,23.40
2018-09-10T11:51:42.034Z,23.30
2018-09-10T11:54:10.124Z,23.20
2018-09-10T11:56:38.245Z,23.10
2018-09-10T11:59:06.350Z,23.20
2018-09-10T12:01:34.458Z,23.00
2018-09-10T12:04:02.839Z,23.30
2018-09-10T12:06:30.966Z,23.20
2018-09-10T12:08:59.083Z,23.30
2018-09-10T12:11:28.068Z,23.50
2018-09-10T12:13:56.195Z,23.60
2018-09-10T12:18:58.800Z,23.50
2018-09-10T12:21:26.938Z,23.60
2018-09-10T12:23:55.017Z,23.60
2018-09-10T12:26:23.151Z,23.40
2018-09-10T12:28:51.284Z,23.40
2018-09-10T12:31:19.404Z,23.30
2018-09-10T12:33:47.516Z,23.30
2018-09-10T12:36:15.639Z,23.00
2018-09-10T12:38:43.737Z,22.90
2018-09-10T12:41:11.864Z,23.00
2018-09-10T12:43:39.980Z,23.00
2018-09-10T12:46:08.100Z,23.10
2018-09-10T12:48:36.202Z,23.10
2018-09-10T12:51:04.323Z,23.00
2018-09-10T12:53:32.436Z,22.90
2018-09-10T12:56:00.573Z,22.90
2018-09-10T12:58:28.669Z,23.00
2018-09-10T13:00:56.808Z,23.10
2018-09-10T13:03:24.908Z,23.00
2018-09-10T13:05:52.986Z,22.90
2018-09-10T13:08:21.097Z,22.90
2018-09-10T13:10:49.230Z,23.00
2018-09-10T13:13:17.265Z,23.00
2018-09-10T13:15:45.354Z,22.90
2018-09-10T13:18:13.456Z,23.00
2018-09-10T13:20:41.561Z,23.10
2018-09-10T13:23:09.638Z,23.00
2018-09-10T13:25:37.740Z,23.00
2018-09-10T13:28:05.835Z,22.90
2018-09-10T13:30:33.924Z,22.80
2018-09-10T13:33:02.030Z,22.70
2018-09-10T13:35:30.112Z,22.60
2018-09-10T13:37:58.211Z,22.60
2018-09-10T13:40:26.288Z,22.70
2018-09-10T13:42:54.383Z,22.60
2018-09-10T13:45:22.454Z,22.60
2018-09-10T13:47:50.556Z,22.60
2018-09-10T13:50:18.647Z,22.50
2018-09-10T13:52:46.722Z,22.40
2018-09-10T13:56:18.233Z,22.40
2018-09-10T13:58:46.320Z,22.40
2018-09-10T14:01:14.404Z,22.50
2018-09-10T14:03:42.524Z,22.60
2018-09-10T14:06:10.645Z,22.60
2018-09-10T14:08:38.752Z,22.50
2018-09-10T14:11:06.887Z,22.60
2018-09-10T14:13:35.385Z,22.50
2018-09-10T14:16:03.735Z,22.60
2018-09-10T14:18:31.864Z,22.60
2018-09-10T14:20:59.980Z,22.80
2018-09-10T14:23:28.115Z,22.80
2018-09-10T14:25:56.217Z,22.80
2018-09-10T14:28:24.327Z,22.70
2018-09-10T14:30:52.436Z,22.80
2018-09-10T14:33:20.564Z,22.70
2018-09-10T14:35:48.667Z,22.70
2018-09-10T14:38:16.787Z,22.70
2018-09-10T14:40:44.900Z,22.60
2018-09-10T14:43:13.048Z,22.40
2018-09-10T14:45:41.136Z,22.40
2018-09-10T14:48:09.251Z,22.40
2018-09-10T14:50:37.456Z,22.30
2018-09-10T14:53:05.530Z,22.20
2018-09-10T14:55:33.630Z,22.20
2018-09-10T14:58:01.750Z,22.30
2018-09-10T15:00:29.868Z,22.20
2018-09-10T15:02:58.025Z,22.30
2018-09-10T15:05:26.125Z,22.30
2018-09-10T15:07:54.857Z,22.40
2018-09-10T15:10:22.971Z,22.40
2018-09-10T15:12:51.085Z,22.50
2018-09-10T15:15:19.195Z,22.50
2018-09-10T15:17:47.309Z,22.40
2018-09-10T15:20:15.426Z,22.40
2018-09-10T15:22:43.552Z,22.40
2018-09-10T15:25:11.661Z,22.40
2018-09-10T15:27:39.950Z,22.50
2018-09-10T15:30:08.113Z,22.30
2018-09-10T15:32:36.231Z,22.30
2018-09-10T15:35:04.563Z,22.30
2018-09-10T15:37:32.668Z,22.20
2018-09-10T15:40:03.444Z,22.20
2018-09-10T15:42:31.567Z,22.30
2018-09-10T15:44:59.675Z,22.40
2018-09-10T15:47:27.807Z,22.30
2018-09-10T15:49:55.919Z,22.20
2018-09-10T15:52:24.022Z,22.10
2018-09-10T15:54:52.140Z,22.10
2018-09-10T15:57:20.305Z,22.20
2018-09-10T15:59:55.251Z,22.20
2018-09-10T16:02:23.335Z,22.20
2018-09-10T16:04:51.423Z,22.10
2018-09-10T16:07:19.629Z,22.10
2018-09-10T16:09:47.588Z,22.10
2018-09-10T16:12:15.676Z,22.10
2018-09-10T16:14:43.775Z,22.10
2018-09-10T16:17:11.852Z,22.10
2018-09-10T16:19:39.940Z,22.20
2018-09-10T16:22:08.028Z,22.10
2018-09-10T16:24:36.111Z,22.00
2018-09-10T16:27:04.190Z,22.00
2018-09-10T16:29:32.275Z,21.90
2018-09-10T16:32:00.408Z,21.90
2018-09-10T16:34:28.522Z,21.90
2018-09-10T16:36:56.603Z,21.80
2018-09-10T16:39:24.704Z,21.90
2018-09-10T16:41:52.792Z,21.90
2018-09-10T16:44:20.881Z,21.90
2018-09-10T16:46:48.964Z,21.90
2018-09-10T16:49:17.060Z,21.90
2018-09-10T16:51:45.144Z,21.80
2018-09-10T16:54:13.291Z,21.90
2018-09-10T16:56:41.315Z,21.90
2018-09-10T16:59:09.412Z,21.90
2018-09-10T17:01:37.495Z,21.80
2018-09-10T17:04:05.581Z,21.90
2018-09-10T17:06:33.738Z,21.90
2018-09-10T17:09:01.824Z,21.80
2018-09-10T17:11:29.911Z,21.80
2018-09-10T17:13:57.991Z,21.70
2018-09-10T17:16:26.080Z,21.60
2018-09-10T17:18:54.170Z,21.60
2018-09-10T17:21:22.251Z,21.50
2018-09-10T17:23:50.344Z,21.50
2018-09-10T17:26:18.429Z,21.50
2018-09-10T17:28:46.548Z,21.60
2018-09-10T17:31:14.616Z,21.50
2018-09-10T17:33:42.723Z,21.40
2018-09-10T17:36:10.872Z,21.30
2018-09-10T17:38:38.983Z,21.30
2018-09-10T17:41:07.132Z,21.30
2018-09-10T17:43:35.215Z,21.20
2018-09-10T17:46:03.337Z,21.30
2018-09-10T17:48:31.430Z,21.30
2018-09-10T17:50:59.524Z,21.20
2018-09-10T17:53:27.660Z,21.10
2018-09-10T17:55:55.755Z,21.10
2018-09-10T17:58:23.911Z,21.00
2018-09-10T18:00:52.441Z,21.00
2018-09-10T18:03:20.481Z,21.00
2018-09-10T18:05:48.623Z,21.00
2018-09-10T18:08:16.726Z,20.90
2018-09-10T18:10:44.852Z,20.80
2018-09-10T18:13:13.003Z,20.70
2018-09-10T18:15:41.122Z,20.60
2018-09-10T18:18:09.246Z,20.50
2018-09-10T18:20:37.419Z,20.50
2018-09-10T18:23:05.481Z,20.40
2018-09-10T18:25:33.670Z,20.50
2018-09-10T18:28:02.317Z,20.50
2018-09-10T18:30:30.440Z,20.50
2018-09-10T18:32:58.608Z,20.40
2018-09-10T18:35:26.823Z,20.40
2018-09-10T18:37:55.068Z,20.40
2018-09-10T18:40:23.376Z,20.40
2018-09-10T18:42:51.407Z,20.40
2018-09-10T18:45:19.547Z,20.40
2018-09-10T18:47:47.677Z,20.30
2018-09-10T18:50:15.923Z,20.20
2018-09-10T18:52:44.404Z,20.20
2018-09-10T18:55:14.374Z,20.20
2018-09-10T18:57:42.600Z,20.10
2018-09-10T19:00:11.328Z,20.10
2018-09-10T19:02:39.445Z,19.80
2018-09-10T19:05:07.931Z,19.60
2018-09-10T19:07:36.074Z,19.50
2018-09-10T19:10:04.336Z,19.40
2018-09-10T19:12:32.458Z,19.30
2018-09-10T19:15:00.713Z,19.30
2018-09-10T19:17:28.907Z,19.20
2018-09-10T19:19:57.097Z,19.30
2018-09-10T19:22:25.302Z,19.30
2018-09-10T19:24:53.438Z,19.30
2018-09-10T19:27:21.576Z,19.10
2018-09-10T19:29:49.986Z,18.90
2018-09-10T19:32:18.087Z,18.80
2018-09-10T19:34:46.343Z,18.90
2018-09-10T19:37:14.481Z,18.90
2018-09-10T19:39:42.628Z,18.80
2018-09-10T19:42:10.731Z,18.60
2018-09-10T19:44:38.872Z,18.50
2018-09-10T19:47:07.026Z,18.20
2018-09-10T19:49:35.142Z,18.20
2018-09-10T19:52:03.340Z,18.30
2018-09-10T19:54:31.835Z,18.30
2018-09-10T19:57:01.044Z,18.20
2018-09-10T19:59:29.261Z,18.20
2018-09-10T20:01:57.552Z,18.10
2018-09-10T20:04:25.673Z,17.90
2018-09-10T20:06:53.783Z,17.80
2018-09-10T20:09:21.899Z,17.80
2018-09-10T20:11:50.482Z,17.70
2018-09-10T20:14:18.614Z,17.70
2018-09-10T20:16:46.736Z,17.80
2018-09-10T20:19:14.848Z,17.60
2018-09-10T20:21:42.959Z,17.60
2018-09-10T20:24:11.429Z,17.50
2018-09-10T20:26:39.810Z,17.50
2018-09-10T20:29:07.908Z,17.50
2018-09-10T20:31:36.046Z,17.60
2018-09-10T20:34:05.569Z,17.50
2018-09-10T20:36:34.288Z,17.50
2018-09-10T20:39:02.913Z,17.40
2018-09-10T20:41:31.300Z,17.20
2018-09-10T20:43:59.426Z,17.00
2018-09-10T20:46:27.550Z,17.00
2018-09-10T20:48:55.646Z,17.00
2018-09-10T20:51:23.909Z,17.10
2018-09-10T20:53:52.096Z,17.10
2018-09-10T20:56:20.296Z,17.10
2018-09-10T20:58:48.419Z,17.10
2018-09-10T21:01:16.572Z,17.10
2018-09-10T21:03:44.659Z,17.10
2018-09-10T21:06:13.180Z,17.00
2018-09-10T21:08:41.236Z,17.00
2018-09-10T21:12:34.102Z,17.00
2018-09-10T21:15:02.195Z,17.10
2018-09-10T21:17:30.327Z,17.00
2018-09-10T21:19:58.404Z,17.00
2018-09-10T21:22:26.495Z,17.00
2018-09-10T21:24:54.632Z,17.00
2018-09-10T21:27:23.032Z,16.90
2018-09-10T21:29:51.806Z,16.90
2018-09-10T21:32:19.905Z,16.90
2018-09-10T21:34:48.301Z,16.90
2018-09-10T21:37:16.412Z,16.90
2018-09-10T21:39:44.500Z,16.90
2018-09-10T21:42:12.583Z,16.80
2018-09-10T21:44:40.820Z,16.80
2018-09-10T21:47:09.013Z,16.70
2018-09-10T21:49:37.013Z,16.70
2018-09-10T21:52:05.118Z,16.70
2018-09-10T21:54:33.215Z,16.70
2018-09-10T21:57:01.308Z,16.70
2018-09-10T21:59:29.382Z,16.70
2018-09-10T22:01:57.488Z,16.70
2018-09-10T22:04:25.628Z,16.70
2018-09-10T22:06:54.096Z,16.70
2018-09-10T22:09:22.211Z,16.60
2018-09-10T22:11:55.834Z,16.60
2018-09-10T22:14:24.205Z,16.60
2018-09-10T22:16:52.291Z,16.50
2018-09-10T22:19:20.379Z,16.50
2018-09-10T22:21:48.467Z,16.50
2018-09-10T22:24:16.564Z,16.50
2018-09-10T22:26:44.675Z,16.40
2018-09-10T22:29:12.770Z,16.40
2018-09-10T22:31:40.880Z,16.40
2018-09-10T22:34:08.957Z,16.40
2018-09-10T22:36:37.063Z,16.30
2018-09-10T22:39:08.079Z,16.30
2018-09-10T22:41:36.181Z,16.30
2018-09-10T22:44:04.313Z,16.30
2018-09-10T22:46:32.482Z,16.30
2018-09-10T22:49:00.576Z,16.30
2018-09-10T22:51:28.680Z,16.30
2018-09-10T22:53:56.776Z,16.30
2018-09-10T22:56:24.911Z,16.30
2018-09-10T22:58:53.124Z,16.40
2018-09-10T23:01:21.201Z,16.40
2018-09-10T23:03:49.519Z,16.30
2018-09-10T23:06:17.629Z,16.30
2018-09-10T23:08:45.787Z,16.30
2018-09-10T23:11:13.841Z,16.20
2018-09-10T23:13:41.936Z,16.20
2018-09-10T23:16:10.224Z,16.20
2018-09-10T23:18:38.333Z,16.20
2018-09-10T23:21:06.487Z,16.30
2018-09-10T23:23:34.584Z,16.30
2018-09-10T23:26:02.726Z,16.20
2018-09-10T23:28:30.763Z,16.20
2018-09-10T23:30:58.855Z,16.20
2018-09-10T23:33:26.947Z,16.20
2018-09-10T23:35:55.023Z,16.20
2018-09-10T23:38:23.116Z,16.20
2018-09-10T23:40:51.199Z,16.20
2018-09-10T23:43:19.288Z,16.30
2018-09-10T23:45:48.811Z,16.20
2018-09-10T23:48:16.885Z,16.20
2018-09-10T23:50:44.972Z,16.30
2018-09-10T23:53:13.063Z,16.30
2018-09-10T23:55:41.155Z,16.30
2018-09-10T23:58:09.248Z,16.30
